Terminal Aerodrome Forecast
Issued by NWS San Angelo, TX

Home | Current Version | Previous Version | Text Only | Print | Product List | Glossary On
Versions: 1 2 3 4 5 6 7 8 9 10 11 12 13 14 15 16 17 18 19 20 21 22
378
FTUS44 KSJT 280520
TAFSJT
TAF
KSJT 280520Z 2806/2906 17010KT P6SM SKC
     FM282100 14011KT P6SM OVC250 PROB30 2900/2906 P6SM -TSRA
      BKN050CB=

USA.gov is the U.S. government's official web portal to all federal, state and local government web resources and services.